sensor_id;sensor_type;location;lat;lon;timestamp;P1;durP1;ratioP1;P2;durP2;ratioP2
45077;SDS011;60508;42.622;25.416;2023-06-26T00:00:10;9.23;;;3.90;;
45077;SDS011;60508;42.622;25.416;2023-06-26T00:02:45;8.00;;;3.55;;
45077;SDS011;60508;42.622;25.416;2023-06-26T00:05:12;6.15;;;3.83;;
45077;SDS011;60508;42.622;25.416;2023-06-26T00:07:39;10.32;;;4.85;;
45077;SDS011;60508;42.622;25.416;2023-06-26T00:10:06;9.95;;;3.72;;
45077;SDS011;60508;42.622;25.416;2023-06-26T00:12:32;9.00;;;4.03;;
45077;SDS011;60508;42.622;25.416;2023-06-26T00:15:00;9.70;;;4.25;;
45077;SDS011;60508;42.622;25.416;2023-06-26T00:17:26;8.63;;;4.13;;
45077;SDS011;60508;42.622;25.416;2023-06-26T00:20:00;6.78;;;3.80;;
45077;SDS011;60508;42.622;25.416;2023-06-26T00:22:32;7.47;;;4.57;;
45077;SDS011;60508;42.622;25.416;2023-06-26T00:24:59;9.25;;;4.05;;
45077;SDS011;60508;42.622;25.416;2023-06-26T00:27:33;14.80;;;3.53;;
45077;SDS011;60508;42.622;25.416;2023-06-26T00:29:59;9.02;;;4.30;;
45077;SDS011;60508;42.622;25.416;2023-06-26T00:32:26;7.10;;;3.72;;
45077;SDS011;60508;42.622;25.416;2023-06-26T00:35:00;5.70;;;4.18;;
45077;SDS011;60508;42.622;25.416;2023-06-26T00:37:27;5.85;;;3.83;;
45077;SDS011;60508;42.622;25.416;2023-06-26T00:39:54;6.28;;;4.03;;
45077;SDS011;60508;42.622;25.416;2023-06-26T00:42:27;12.32;;;4.85;;
45077;SDS011;60508;42.622;25.416;2023-06-26T00:44:54;7.45;;;4.13;;
45077;SDS011;60508;42.622;25.416;2023-06-26T00:47:20;5.03;;;2.90;;
45077;SDS011;60508;42.622;25.416;2023-06-26T00:49:47;5.85;;;3.30;;
45077;SDS011;60508;42.622;25.416;2023-06-26T00:52:13;8.75;;;2.70;;
45077;SDS011;60508;42.622;25.416;2023-06-26T00:54:47;6.38;;;3.55;;
45077;SDS011;60508;42.622;25.416;2023-06-26T00:59:43;9.10;;;1.88;;
45077;SDS011;60508;42.622;25.416;2023-06-26T01:02:17;2.80;;;1.42;;
45077;SDS011;60508;42.622;25.416;2023-06-26T01:04:49;5.00;;;1.52;;
45077;SDS011;60508;42.622;25.416;2023-06-26T01:07:17;1.85;;;1.38;;
45077;SDS011;60508;42.622;25.416;2023-06-26T01:09:46;1.73;;;1.45;;
45077;SDS011;60508;42.622;25.416;2023-06-26T01:12:14;3.88;;;1.50;;
45077;SDS011;60508;42.622;25.416;2023-06-26T01:14:48;9.77;;;1.40;;
45077;SDS011;60508;42.622;25.416;2023-06-26T01:17:15;3.22;;;1.55;;
45077;SDS011;60508;42.622;25.416;2023-06-26T01:19:42;5.45;;;2.47;;
45077;SDS011;60508;42.622;25.416;2023-06-26T01:24:49;3.55;;;1.83;;
45077;SDS011;60508;42.622;25.416;2023-06-26T01:27:27;5.25;;;1.48;;
45077;SDS011;60508;42.622;25.416;2023-06-26T01:30:06;2.88;;;1.98;;
45077;SDS011;60508;42.622;25.416;2023-06-26T01:32:35;3.45;;;1.17;;
45077;SDS011;60508;42.622;25.416;2023-06-26T01:35:02;1.92;;;1.30;;
45077;SDS011;60508;42.622;25.416;2023-06-26T01:37:30;5.03;;;2.00;;
45077;SDS011;60508;42.622;25.416;2023-06-26T01:40:05;5.15;;;1.70;;
45077;SDS011;60508;42.622;25.416;2023-06-26T01:42:32;3.88;;;2.00;;
45077;SDS011;60508;42.622;25.416;2023-06-26T01:45:21;3.13;;;1.88;;
45077;SDS011;60508;42.622;25.416;2023-06-26T01:47:52;2.78;;;1.60;;
45077;SDS011;60508;42.622;25.416;2023-06-26T01:50:26;3.33;;;2.10;;
45077;SDS011;60508;42.622;25.416;2023-06-26T01:53:12;12.43;;;2.40;;
45077;SDS011;60508;42.622;25.416;2023-06-26T01:55:47;2.92;;;1.80;;
45077;SDS011;60508;42.622;25.416;2023-06-26T01:58:18;3.03;;;1.80;;
45077;SDS011;60508;42.622;25.416;2023-06-26T02:00:48;4.70;;;2.45;;
45077;SDS011;60508;42.622;25.416;2023-06-26T02:03:15;4.50;;;2.00;;
45077;SDS011;60508;42.622;25.416;2023-06-26T02:05:49;4.72;;;2.10;;
45077;SDS011;60508;42.622;25.416;2023-06-26T02:08:15;10.30;;;2.38;;
45077;SDS011;60508;42.622;25.416;2023-06-26T02:10:48;3.33;;;1.90;;
45077;SDS011;60508;42.622;25.416;2023-06-26T02:13:16;3.63;;;1.85;;
45077;SDS011;60508;42.622;25.416;2023-06-26T02:15:43;4.85;;;2.13;;
45077;SDS011;60508;42.622;25.416;2023-06-26T02:18:09;5.03;;;1.92;;
45077;SDS011;60508;42.622;25.416;2023-06-26T02:20:36;5.43;;;2.03;;
45077;SDS011;60508;42.622;25.416;2023-06-26T02:23:02;3.83;;;2.53;;
45077;SDS011;60508;42.622;25.416;2023-06-26T02:25:37;5.90;;;2.70;;
45077;SDS011;60508;42.622;25.416;2023-06-26T02:28:03;6.28;;;2.40;;
45077;SDS011;60508;42.622;25.416;2023-06-26T02:30:30;5.82;;;2.50;;
45077;SDS011;60508;42.622;25.416;2023-06-26T02:32:59;2.55;;;2.20;;
45077;SDS011;60508;42.622;25.416;2023-06-26T02:35:25;3.42;;;2.30;;
45077;SDS011;60508;42.622;25.416;2023-06-26T02:37:59;5.10;;;2.47;;
45077;SDS011;60508;42.622;25.416;2023-06-26T02:40:26;3.38;;;2.40;;
45077;SDS011;60508;42.622;25.416;2023-06-26T02:42:53;6.20;;;3.13;;
45077;SDS011;60508;42.622;25.416;2023-06-26T02:45:20;4.20;;;2.53;;
45077;SDS011;60508;42.622;25.416;2023-06-26T02:47:47;6.28;;;2.83;;
45077;SDS011;60508;42.622;25.416;2023-06-26T02:50:19;4.38;;;3.10;;
45077;SDS011;60508;42.622;25.416;2023-06-26T02:53:02;6.47;;;2.63;;
45077;SDS011;60508;42.622;25.416;2023-06-26T02:55:29;7.95;;;3.10;;
45077;SDS011;60508;42.622;25.416;2023-06-26T02:57:56;5.10;;;3.90;;
45077;SDS011;60508;42.622;25.416;2023-06-26T03:00:31;5.95;;;3.60;;
45077;SDS011;60508;42.622;25.416;2023-06-26T03:03:01;3.22;;;2.53;;
45077;SDS011;60508;42.622;25.416;2023-06-26T03:05:28;5.28;;;3.50;;
45077;SDS011;60508;42.622;25.416;2023-06-26T03:07:54;4.35;;;3.00;;
45077;SDS011;60508;42.622;25.416;2023-06-26T03:10:21;6.40;;;3.42;;
45077;SDS011;60508;42.622;25.416;2023-06-26T03:12:55;6.63;;;3.00;;
45077;SDS011;60508;42.622;25.416;2023-06-26T03:15:23;5.38;;;3.50;;
45077;SDS011;60508;42.622;25.416;2023-06-26T03:17:50;4.00;;;2.78;;
45077;SDS011;60508;42.622;25.416;2023-06-26T03:20:23;3.05;;;2.75;;
45077;SDS011;60508;42.622;25.416;2023-06-26T03:22:57;9.30;;;3.25;;
45077;SDS011;60508;42.622;25.416;2023-06-26T03:25:23;3.88;;;2.97;;
45077;SDS011;60508;42.622;25.416;2023-06-26T03:27:57;5.72;;;3.17;;
45077;SDS011;60508;42.622;25.416;2023-06-26T03:30:25;5.53;;;3.17;;
45077;SDS011;60508;42.622;25.416;2023-06-26T03:32:58;6.03;;;3.17;;
45077;SDS011;60508;42.622;25.416;2023-06-26T03:35:24;5.50;;;3.58;;
45077;SDS011;60508;42.622;25.416;2023-06-26T03:37:51;4.65;;;3.17;;
45077;SDS011;60508;42.622;25.416;2023-06-26T03:40:17;4.15;;;3.03;;
45077;SDS011;60508;42.622;25.416;2023-06-26T03:42:51;5.03;;;3.17;;
45077;SDS011;60508;42.622;25.416;2023-06-26T03:45:18;5.97;;;3.70;;
45077;SDS011;60508;42.622;25.416;2023-06-26T03:47:45;4.40;;;2.70;;
45077;SDS011;60508;42.622;25.416;2023-06-26T03:50:15;5.00;;;2.92;;
45077;SDS011;60508;42.622;25.416;2023-06-26T03:52:42;4.18;;;3.03;;
45077;SDS011;60508;42.622;25.416;2023-06-26T03:55:21;6.50;;;2.67;;
45077;SDS011;60508;42.622;25.416;2023-06-26T03:57:48;4.57;;;2.92;;
45077;SDS011;60508;42.622;25.416;2023-06-26T04:00:15;2.85;;;2.55;;
45077;SDS011;60508;42.622;25.416;2023-06-26T04:02:45;6.25;;;3.17;;
45077;SDS011;60508;42.622;25.416;2023-06-26T04:05:13;9.30;;;3.67;;
45077;SDS011;60508;42.622;25.416;2023-06-26T04:07:40;4.97;;;3.05;;
45077;SDS011;60508;42.622;25.416;2023-06-26T04:10:07;7.25;;;3.30;;
45077;SDS011;60508;42.622;25.416;2023-06-26T04:12:35;4.13;;;3.20;;
45077;SDS011;60508;42.622;25.416;2023-06-26T04:15:01;6.20;;;3.28;;
45077;SDS011;60508;42.622;25.416;2023-06-26T04:17:29;10.20;;;3.90;;
45077;SDS011;60508;42.622;25.416;2023-06-26T04:19:56;3.67;;;3.35;;
45077;SDS011;60508;42.622;25.416;2023-06-26T04:22:28;6.72;;;3.55;;
45077;SDS011;60508;42.622;25.416;2023-06-26T04:24:55;4.00;;;3.13;;
45077;SDS011;60508;42.622;25.416;2023-06-26T04:27:21;3.63;;;2.80;;
45077;SDS011;60508;42.622;25.416;2023-06-26T04:29:48;6.85;;;3.05;;
45077;SDS011;60508;42.622;25.416;2023-06-26T04:32:22;5.03;;;3.10;;
45077;SDS011;60508;42.622;25.416;2023-06-26T04:34:49;3.88;;;2.75;;
45077;SDS011;60508;42.622;25.416;2023-06-26T04:37:16;8.45;;;4.72;;
45077;SDS011;60508;42.622;25.416;2023-06-26T04:39:43;7.45;;;3.22;;
45077;SDS011;60508;42.622;25.416;2023-06-26T04:42:10;6.75;;;2.97;;
45077;SDS011;60508;42.622;25.416;2023-06-26T04:44:38;8.30;;;3.60;;
45077;SDS011;60508;42.622;25.416;2023-06-26T04:47:12;3.55;;;2.60;;
45077;SDS011;60508;42.622;25.416;2023-06-26T04:49:41;3.97;;;2.53;;
45077;SDS011;60508;42.622;25.416;2023-06-26T04:52:12;3.13;;;2.78;;
45077;SDS011;60508;42.622;25.416;2023-06-26T04:54:39;6.53;;;3.08;;
45077;SDS011;60508;42.622;25.416;2023-06-26T04:57:06;5.85;;;2.83;;
45077;SDS011;60508;42.622;25.416;2023-06-26T04:59:34;6.15;;;2.42;;
45077;SDS011;60508;42.622;25.416;2023-06-26T05:02:01;6.85;;;4.30;;
45077;SDS011;60508;42.622;25.416;2023-06-26T05:04:33;3.72;;;3.28;;
45077;SDS011;60508;42.622;25.416;2023-06-26T05:07:00;6.60;;;3.50;;
45077;SDS011;60508;42.622;25.416;2023-06-26T05:09:26;5.32;;;4.57;;
45077;SDS011;60508;42.622;25.416;2023-06-26T05:11:54;4.93;;;4.43;;
45077;SDS011;60508;42.622;25.416;2023-06-26T05:14:21;12.20;;;7.57;;
45077;SDS011;60508;42.622;25.416;2023-06-26T05:16:47;7.68;;;5.25;;
45077;SDS011;60508;42.622;25.416;2023-06-26T05:19:14;6.88;;;3.80;;
45077;SDS011;60508;42.622;25.416;2023-06-26T05:21:40;7.43;;;3.70;;
45077;SDS011;60508;42.622;25.416;2023-06-26T05:24:08;9.88;;;3.67;;
45077;SDS011;60508;42.622;25.416;2023-06-26T05:26:42;4.93;;;3.30;;
45077;SDS011;60508;42.622;25.416;2023-06-26T05:29:09;14.20;;;4.63;;
45077;SDS011;60508;42.622;25.416;2023-06-26T05:31:36;5.30;;;3.38;;
45077;SDS011;60508;42.622;25.416;2023-06-26T05:34:07;5.85;;;3.53;;
45077;SDS011;60508;42.622;25.416;2023-06-26T05:36:44;7.05;;;4.25;;
45077;SDS011;60508;42.622;25.416;2023-06-26T05:39:14;4.32;;;3.33;;
45077;SDS011;60508;42.622;25.416;2023-06-26T05:41:41;5.07;;;3.40;;
45077;SDS011;60508;42.622;25.416;2023-06-26T05:44:10;10.65;;;3.42;;
45077;SDS011;60508;42.622;25.416;2023-06-26T05:46:36;7.90;;;3.30;;
45077;SDS011;60508;42.622;25.416;2023-06-26T05:49:04;7.03;;;3.92;;
45077;SDS011;60508;42.622;25.416;2023-06-26T05:51:39;6.07;;;3.83;;
45077;SDS011;60508;42.622;25.416;2023-06-26T05:54:06;6.03;;;3.60;;
45077;SDS011;60508;42.622;25.416;2023-06-26T05:56:33;6.57;;;3.75;;
45077;SDS011;60508;42.622;25.416;2023-06-26T05:58:59;4.60;;;3.35;;
45077;SDS011;60508;42.622;25.416;2023-06-26T06:01:36;6.18;;;3.15;;
45077;SDS011;60508;42.622;25.416;2023-06-26T06:04:03;5.97;;;3.53;;
45077;SDS011;60508;42.622;25.416;2023-06-26T06:06:29;3.20;;;2.58;;
45077;SDS011;60508;42.622;25.416;2023-06-26T06:08:56;4.50;;;2.47;;
45077;SDS011;60508;42.622;25.416;2023-06-26T06:11:23;4.32;;;2.85;;
45077;SDS011;60508;42.622;25.416;2023-06-26T06:13:50;4.78;;;3.25;;
45077;SDS011;60508;42.622;25.416;2023-06-26T06:16:16;6.13;;;2.72;;
45077;SDS011;60508;42.622;25.416;2023-06-26T06:18:43;5.15;;;2.92;;
45077;SDS011;60508;42.622;25.416;2023-06-26T06:21:10;4.30;;;3.13;;
45077;SDS011;60508;42.622;25.416;2023-06-26T06:23:44;4.90;;;2.75;;
45077;SDS011;60508;42.622;25.416;2023-06-26T06:26:11;6.72;;;3.05;;
45077;SDS011;60508;42.622;25.416;2023-06-26T06:28:39;5.40;;;2.90;;
45077;SDS011;60508;42.622;25.416;2023-06-26T06:31:05;21.25;;;4.50;;
45077;SDS011;60508;42.622;25.416;2023-06-26T06:33:32;5.93;;;3.13;;
45077;SDS011;60508;42.622;25.416;2023-06-26T06:36:06;5.30;;;2.58;;
45077;SDS011;60508;42.622;25.416;2023-06-26T06:38:32;4.25;;;2.92;;
45077;SDS011;60508;42.622;25.416;2023-06-26T06:40:59;5.00;;;2.85;;
45077;SDS011;60508;42.622;25.416;2023-06-26T06:43:26;4.25;;;3.08;;
45077;SDS011;60508;42.622;25.416;2023-06-26T06:45:52;8.65;;;4.13;;
45077;SDS011;60508;42.622;25.416;2023-06-26T06:48:23;6.85;;;3.97;;
45077;SDS011;60508;42.622;25.416;2023-06-26T06:50:49;7.03;;;3.78;;
45077;SDS011;60508;42.622;25.416;2023-06-26T06:53:17;4.60;;;3.17;;
45077;SDS011;60508;42.622;25.416;2023-06-26T06:55:47;5.60;;;3.33;;
45077;SDS011;60508;42.622;25.416;2023-06-26T06:58:16;7.63;;;3.97;;
45077;SDS011;60508;42.622;25.416;2023-06-26T07:00:53;6.28;;;4.43;;
45077;SDS011;60508;42.622;25.416;2023-06-26T07:03:19;9.73;;;4.65;;
45077;SDS011;60508;42.622;25.416;2023-06-26T07:05:47;6.78;;;3.83;;
45077;SDS011;60508;42.622;25.416;2023-06-26T07:08:14;9.30;;;4.35;;
45077;SDS011;60508;42.622;25.416;2023-06-26T07:10:48;6.07;;;3.80;;
45077;SDS011;60508;42.622;25.416;2023-06-26T07:13:15;4.75;;;3.25;;
45077;SDS011;60508;42.622;25.416;2023-06-26T07:15:41;3.17;;;2.88;;
45077;SDS011;60508;42.622;25.416;2023-06-26T07:18:09;6.80;;;3.97;;
45077;SDS011;60508;42.622;25.416;2023-06-26T07:20:35;9.38;;;2.65;;
45077;SDS011;60508;42.622;25.416;2023-06-26T07:23:10;5.68;;;2.80;;
45077;SDS011;60508;42.622;25.416;2023-06-26T07:25:36;4.95;;;2.92;;
45077;SDS011;60508;42.622;25.416;2023-06-26T07:28:03;5.00;;;3.10;;
45077;SDS011;60508;42.622;25.416;2023-06-26T07:30:35;6.63;;;4.07;;
45077;SDS011;60508;42.622;25.416;2023-06-26T07:33:02;5.07;;;3.08;;
45077;SDS011;60508;42.622;25.416;2023-06-26T07:35:36;4.70;;;3.35;;
45077;SDS011;60508;42.622;25.416;2023-06-26T07:38:03;7.65;;;2.75;;
45077;SDS011;60508;42.622;25.416;2023-06-26T07:40:29;6.05;;;3.00;;
45077;SDS011;60508;42.622;25.416;2023-06-26T07:42:56;3.78;;;2.08;;
45077;SDS011;60508;42.622;25.416;2023-06-26T07:45:24;4.38;;;2.65;;
45077;SDS011;60508;42.622;25.416;2023-06-26T07:47:58;5.72;;;2.22;;
45077;SDS011;60508;42.622;25.416;2023-06-26T07:50:25;4.13;;;2.70;;
45077;SDS011;60508;42.622;25.416;2023-06-26T07:52:52;4.72;;;3.03;;
45077;SDS011;60508;42.622;25.416;2023-06-26T07:55:19;10.48;;;5.35;;
45077;SDS011;60508;42.622;25.416;2023-06-26T07:57:52;6.32;;;3.65;;
45077;SDS011;60508;42.622;25.416;2023-06-26T08:00:19;8.80;;;3.25;;
45077;SDS011;60508;42.622;25.416;2023-06-26T08:02:46;4.30;;;3.30;;
45077;SDS011;60508;42.622;25.416;2023-06-26T08:05:12;2.55;;;2.17;;
45077;SDS011;60508;42.622;25.416;2023-06-26T08:07:47;3.97;;;3.22;;
45077;SDS011;60508;42.622;25.416;2023-06-26T08:10:13;3.63;;;2.53;;
45077;SDS011;60508;42.622;25.416;2023-06-26T08:12:40;5.28;;;4.50;;
45077;SDS011;60508;42.622;25.416;2023-06-26T08:15:08;3.47;;;3.10;;
45077;SDS011;60508;42.622;25.416;2023-06-26T08:17:35;3.15;;;2.13;;
45077;SDS011;60508;42.622;25.416;2023-06-26T08:20:10;3.08;;;2.30;;
45077;SDS011;60508;42.622;25.416;2023-06-26T08:22:37;3.88;;;2.80;;
45077;SDS011;60508;42.622;25.416;2023-06-26T08:25:04;1.52;;;1.20;;
45077;SDS011;60508;42.622;25.416;2023-06-26T08:27:31;2.42;;;1.60;;
45077;SDS011;60508;42.622;25.416;2023-06-26T08:29:58;4.32;;;2.85;;
45077;SDS011;60508;42.622;25.416;2023-06-26T08:32:25;3.35;;;2.45;;
45077;SDS011;60508;42.622;25.416;2023-06-26T08:34:51;3.13;;;2.15;;
45077;SDS011;60508;42.622;25.416;2023-06-26T08:37:18;2.92;;;2.15;;
45077;SDS011;60508;42.622;25.416;2023-06-26T08:39:50;3.22;;;2.20;;
45077;SDS011;60508;42.622;25.416;2023-06-26T08:42:17;1.33;;;1.02;;
45077;SDS011;60508;42.622;25.416;2023-06-26T08:44:44;1.58;;;1.45;;
45077;SDS011;60508;42.622;25.416;2023-06-26T08:47:18;3.13;;;2.83;;
45077;SDS011;60508;42.622;25.416;2023-06-26T08:50:01;1.30;;;1.20;;
45077;SDS011;60508;42.622;25.416;2023-06-26T08:52:54;4.63;;;3.33;;
45077;SDS011;60508;42.622;25.416;2023-06-26T08:55:28;4.65;;;1.77;;
45077;SDS011;60508;42.622;25.416;2023-06-26T08:58:02;5.20;;;2.88;;
45077;SDS011;60508;42.622;25.416;2023-06-26T09:00:29;2.70;;;1.80;;
45077;SDS011;60508;42.622;25.416;2023-06-26T09:02:56;2.83;;;2.08;;
45077;SDS011;60508;42.622;25.416;2023-06-26T09:05:30;3.25;;;2.78;;
45077;SDS011;60508;42.622;25.416;2023-06-26T09:08:00;2.55;;;1.92;;
45077;SDS011;60508;42.622;25.416;2023-06-26T09:10:26;2.03;;;1.52;;
45077;SDS011;60508;42.622;25.416;2023-06-26T09:12:58;2.97;;;1.40;;
45077;SDS011;60508;42.622;25.416;2023-06-26T09:15:27;3.55;;;2.20;;
45077;SDS011;60508;42.622;25.416;2023-06-26T09:17:56;2.28;;;2.08;;
45077;SDS011;60508;42.622;25.416;2023-06-26T09:20:27;2.40;;;1.73;;
45077;SDS011;60508;42.622;25.416;2023-06-26T09:23:01;4.22;;;1.80;;
45077;SDS011;60508;42.622;25.416;2023-06-26T09:25:28;5.53;;;2.03;;
45077;SDS011;60508;42.622;25.416;2023-06-26T09:27:55;3.58;;;2.20;;
45077;SDS011;60508;42.622;25.416;2023-06-26T09:30:22;2.78;;;2.45;;
45077;SDS011;60508;42.622;25.416;2023-06-26T09:32:49;2.85;;;2.38;;
45077;SDS011;60508;42.622;25.416;2023-06-26T09:35:20;2.38;;;2.15;;
45077;SDS011;60508;42.622;25.416;2023-06-26T09:37:47;4.20;;;2.90;;
45077;SDS011;60508;42.622;25.416;2023-06-26T09:40:14;4.80;;;3.13;;
45077;SDS011;60508;42.622;25.416;2023-06-26T09:42:40;5.47;;;2.80;;
45077;SDS011;60508;42.622;25.416;2023-06-26T09:45:07;5.85;;;3.13;;
45077;SDS011;60508;42.622;25.416;2023-06-26T09:47:34;4.40;;;2.53;;
45077;SDS011;60508;42.622;25.416;2023-06-26T09:50:03;2.88;;;2.60;;
45077;SDS011;60508;42.622;25.416;2023-06-26T09:52:38;3.03;;;2.47;;
45077;SDS011;60508;42.622;25.416;2023-06-26T09:55:07;4.40;;;2.28;;
45077;SDS011;60508;42.622;25.416;2023-06-26T09:57:35;3.95;;;2.58;;
45077;SDS011;60508;42.622;25.416;2023-06-26T10:00:10;4.82;;;2.35;;
45077;SDS011;60508;42.622;25.416;2023-06-26T10:02:41;3.17;;;2.30;;
45077;SDS011;60508;42.622;25.416;2023-06-26T10:05:07;4.78;;;2.67;;
45077;SDS011;60508;42.622;25.416;2023-06-26T10:07:37;1.60;;;1.23;;
45077;SDS011;60508;42.622;25.416;2023-06-26T10:10:04;5.57;;;2.38;;
45077;SDS011;60508;42.622;25.416;2023-06-26T10:12:41;1.67;;;1.58;;
45077;SDS011;60508;42.622;25.416;2023-06-26T10:15:11;1.40;;;1.17;;
45077;SDS011;60508;42.622;25.416;2023-06-26T10:17:40;2.22;;;1.55;;
45077;SDS011;60508;42.622;25.416;2023-06-26T10:20:09;3.50;;;1.88;;
45077;SDS011;60508;42.622;25.416;2023-06-26T10:22:44;3.20;;;2.08;;
45077;SDS011;60508;42.622;25.416;2023-06-26T10:25:14;2.40;;;1.85;;
45077;SDS011;60508;42.622;25.416;2023-06-26T10:27:47;1.80;;;1.70;;
45077;SDS011;60508;42.622;25.416;2023-06-26T10:30:18;3.78;;;1.50;;
45077;SDS011;60508;42.622;25.416;2023-06-26T10:32:48;1.38;;;1.20;;
45077;SDS011;60508;42.622;25.416;2023-06-26T10:35:15;3.50;;;1.83;;
45077;SDS011;60508;42.622;25.416;2023-06-26T10:37:46;2.03;;;1.50;;
45077;SDS011;60508;42.622;25.416;2023-06-26T10:40:17;2.85;;;1.67;;
45077;SDS011;60508;42.622;25.416;2023-06-26T10:43:07;2.17;;;1.50;;
45077;SDS011;60508;42.622;25.416;2023-06-26T10:45:34;4.90;;;2.15;;
45077;SDS011;60508;42.622;25.416;2023-06-26T10:48:10;1.40;;;1.00;;
45077;SDS011;60508;42.622;25.416;2023-06-26T10:50:39;1.75;;;1.65;;
45077;SDS011;60508;42.622;25.416;2023-06-26T10:55:49;2.00;;;1.55;;
45077;SDS011;60508;42.622;25.416;2023-06-26T11:06:32;3.78;;;1.98;;
45077;SDS011;60508;42.622;25.416;2023-06-26T11:14:19;2.88;;;2.08;;
45077;SDS011;60508;42.622;25.416;2023-06-26T11:16:46;13.38;;;4.90;;
45077;SDS011;60508;42.622;25.416;2023-06-26T11:19:13;2.08;;;1.95;;
45077;SDS011;60508;42.622;25.416;2023-06-26T11:21:46;3.30;;;2.05;;
45077;SDS011;60508;42.622;25.416;2023-06-26T11:24:13;5.10;;;2.58;;
45077;SDS011;60508;42.622;25.416;2023-06-26T11:26:40;2.40;;;2.20;;
45077;SDS011;60508;42.622;25.416;2023-06-26T11:29:15;6.57;;;2.00;;
45077;SDS011;60508;42.622;25.416;2023-06-26T11:31:42;4.30;;;1.95;;
45077;SDS011;60508;42.622;25.416;2023-06-26T11:34:09;5.22;;;2.80;;
45077;SDS011;60508;42.622;25.416;2023-06-26T11:36:38;4.82;;;2.85;;
45077;SDS011;60508;42.622;25.416;2023-06-26T11:39:15;5.32;;;2.72;;
45077;SDS011;60508;42.622;25.416;2023-06-26T11:41:41;8.20;;;2.72;;
45077;SDS011;60508;42.622;25.416;2023-06-26T11:44:09;5.30;;;2.63;;
45077;SDS011;60508;42.622;25.416;2023-06-26T11:46:36;3.90;;;2.60;;
45077;SDS011;60508;42.622;25.416;2023-06-26T11:49:04;3.60;;;2.47;;
45077;SDS011;60508;42.622;25.416;2023-06-26T11:51:31;7.57;;;2.53;;
45077;SDS011;60508;42.622;25.416;2023-06-26T11:54:00;8.23;;;2.83;;
45077;SDS011;60508;42.622;25.416;2023-06-26T11:56:37;4.72;;;2.35;;
45077;SDS011;60508;42.622;25.416;2023-06-26T11:59:05;6.25;;;2.65;;
45077;SDS011;60508;42.622;25.416;2023-06-26T12:01:37;9.75;;;2.72;;
45077;SDS011;60508;42.622;25.416;2023-06-26T12:04:06;4.72;;;3.15;;
45077;SDS011;60508;42.622;25.416;2023-06-26T12:06:35;3.72;;;2.67;;
45077;SDS011;60508;42.622;25.416;2023-06-26T12:09:11;3.35;;;2.92;;
45077;SDS011;60508;42.622;25.416;2023-06-26T12:11:43;5.40;;;2.85;;
45077;SDS011;60508;42.622;25.416;2023-06-26T12:14:11;4.35;;;3.30;;
45077;SDS011;60508;42.622;25.416;2023-06-26T12:16:37;3.25;;;2.80;;
45077;SDS011;60508;42.622;25.416;2023-06-26T12:19:05;3.60;;;2.65;;
45077;SDS011;60508;42.622;25.416;2023-06-26T12:24:13;8.43;;;3.05;;
45077;SDS011;60508;42.622;25.416;2023-06-26T12:26:44;7.45;;;2.75;;
45077;SDS011;60508;42.622;25.416;2023-06-26T12:29:13;6.05;;;3.13;;
45077;SDS011;60508;42.622;25.416;2023-06-26T12:31:44;6.28;;;2.45;;
45077;SDS011;60508;42.622;25.416;2023-06-26T12:34:13;8.40;;;2.67;;
45077;SDS011;60508;42.622;25.416;2023-06-26T12:36:44;4.20;;;2.97;;
45077;SDS011;60508;42.622;25.416;2023-06-26T12:39:13;4.35;;;2.80;;
45077;SDS011;60508;42.622;25.416;2023-06-26T12:44:41;4.53;;;2.88;;
45077;SDS011;60508;42.622;25.416;2023-06-26T12:47:17;8.30;;;2.25;;
45077;SDS011;60508;42.622;25.416;2023-06-26T12:49:45;7.05;;;3.13;;
45077;SDS011;60508;42.622;25.416;2023-06-26T12:52:16;6.68;;;2.70;;
45077;SDS011;60508;42.622;25.416;2023-06-26T12:54:51;4.00;;;2.45;;
45077;SDS011;60508;42.622;25.416;2023-06-26T12:57:19;9.68;;;5.63;;
45077;SDS011;60508;42.622;25.416;2023-06-26T12:59:46;3.15;;;2.40;;
45077;SDS011;60508;42.622;25.416;2023-06-26T13:02:12;7.30;;;3.33;;
45077;SDS011;60508;42.622;25.416;2023-06-26T13:04:39;6.53;;;2.88;;
45077;SDS011;60508;42.622;25.416;2023-06-26T13:07:14;7.22;;;2.83;;
45077;SDS011;60508;42.622;25.416;2023-06-26T13:09:41;6.18;;;2.58;;
45077;SDS011;60508;42.622;25.416;2023-06-26T13:12:08;9.30;;;2.83;;
45077;SDS011;60508;42.622;25.416;2023-06-26T13:14:42;5.82;;;3.20;;
45077;SDS011;60508;42.622;25.416;2023-06-26T13:17:10;4.70;;;3.00;;
45077;SDS011;60508;42.622;25.416;2023-06-26T13:19:37;7.88;;;2.85;;
45077;SDS011;60508;42.622;25.416;2023-06-26T13:22:04;3.65;;;2.70;;
45077;SDS011;60508;42.622;25.416;2023-06-26T13:24:39;7.03;;;3.58;;
45077;SDS011;60508;42.622;25.416;2023-06-26T13:27:07;3.13;;;2.60;;
45077;SDS011;60508;42.622;25.416;2023-06-26T13:29:33;3.72;;;2.85;;
45077;SDS011;60508;42.622;25.416;2023-06-26T13:32:00;5.03;;;2.17;;
45077;SDS011;60508;42.622;25.416;2023-06-26T13:34:27;7.50;;;3.58;;
45077;SDS011;60508;42.622;25.416;2023-06-26T13:36:54;6.03;;;2.47;;
45077;SDS011;60508;42.622;25.416;2023-06-26T13:39:20;3.28;;;2.22;;
45077;SDS011;60508;42.622;25.416;2023-06-26T13:41:47;8.43;;;2.75;;
45077;SDS011;60508;42.622;25.416;2023-06-26T13:44:21;4.90;;;2.35;;
45077;SDS011;60508;42.622;25.416;2023-06-26T13:46:47;11.80;;;4.13;;
45077;SDS011;60508;42.622;25.416;2023-06-26T13:49:14;6.65;;;2.95;;
45077;SDS011;60508;42.622;25.416;2023-06-26T13:51:40;8.30;;;3.05;;
45077;SDS011;60508;42.622;25.416;2023-06-26T13:54:11;8.23;;;3.63;;
45077;SDS011;60508;42.622;25.416;2023-06-26T13:56:38;6.82;;;2.30;;
45077;SDS011;60508;42.622;25.416;2023-06-26T13:59:04;5.78;;;2.88;;
45077;SDS011;60508;42.622;25.416;2023-06-26T14:01:39;4.35;;;2.10;;
45077;SDS011;60508;42.622;25.416;2023-06-26T14:04:05;5.05;;;2.30;;
45077;SDS011;60508;42.622;25.416;2023-06-26T14:06:32;14.68;;;2.92;;
45077;SDS011;60508;42.622;25.416;2023-06-26T14:09:09;4.60;;;2.00;;
45077;SDS011;60508;42.622;25.416;2023-06-26T14:11:36;4.72;;;2.58;;
45077;SDS011;60508;42.622;25.416;2023-06-26T14:14:03;5.20;;;1.85;;
45077;SDS011;60508;42.622;25.416;2023-06-26T14:16:38;6.45;;;2.60;;
45077;SDS011;60508;42.622;25.416;2023-06-26T14:19:06;16.10;;;2.72;;
45077;SDS011;60508;42.622;25.416;2023-06-26T14:21:32;4.07;;;1.92;;
45077;SDS011;60508;42.622;25.416;2023-06-26T14:26:28;3.90;;;2.33;;
45077;SDS011;60508;42.622;25.416;2023-06-26T14:29:03;2.55;;;2.05;;
45077;SDS011;60508;42.622;25.416;2023-06-26T14:31:30;2.65;;;2.13;;
45077;SDS011;60508;42.622;25.416;2023-06-26T14:33:57;4.68;;;3.28;;
45077;SDS011;60508;42.622;25.416;2023-06-26T14:36:28;3.58;;;1.95;;
45077;SDS011;60508;42.622;25.416;2023-06-26T14:38:57;15.20;;;3.33;;
45077;SDS011;60508;42.622;25.416;2023-06-26T14:41:25;5.00;;;2.65;;
45077;SDS011;60508;42.622;25.416;2023-06-26T14:43:51;3.92;;;2.15;;
45077;SDS011;60508;42.622;25.416;2023-06-26T14:46:27;10.88;;;2.60;;
45077;SDS011;60508;42.622;25.416;2023-06-26T14:48:53;4.22;;;1.98;;
45077;SDS011;60508;42.622;25.416;2023-06-26T14:51:21;1.47;;;1.20;;
45077;SDS011;60508;42.622;25.416;2023-06-26T14:53:48;1.42;;;0.73;;
45077;SDS011;60508;42.622;25.416;2023-06-26T14:56:15;1.80;;;0.70;;
45077;SDS011;60508;42.622;25.416;2023-06-26T14:58:49;3.00;;;0.55;;
45077;SDS011;60508;42.622;25.416;2023-06-26T15:01:19;4.32;;;0.80;;
45077;SDS011;60508;42.622;25.416;2023-06-26T15:03:46;1.35;;;0.98;;
45077;SDS011;60508;42.622;25.416;2023-06-26T15:06:13;0.82;;;0.82;;
45077;SDS011;60508;42.622;25.416;2023-06-26T15:08:49;1.00;;;0.50;;
45077;SDS011;60508;42.622;25.416;2023-06-26T15:11:16;0.65;;;0.65;;
45077;SDS011;60508;42.622;25.416;2023-06-26T15:13:44;1.45;;;0.95;;